sensor_id;sensor_type;location;lat;lon;timestamp;P1;durP1;ratioP1;P2;durP2;ratioP2
64085;SDS011;50333;47.436;21.390;2023-01-09T00:01:23;8.18;;;6.05;;
64085;SDS011;50333;47.436;21.390;2023-01-09T00:03:54;6.82;;;5.40;;
64085;SDS011;50333;47.436;21.390;2023-01-09T00:06:21;9.15;;;5.65;;
64085;SDS011;50333;47.436;21.390;2023-01-09T00:08:49;7.87;;;5.55;;
64085;SDS011;50333;47.436;21.390;2023-01-09T00:11:17;9.90;;;5.55;;
64085;SDS011;50333;47.436;21.390;2023-01-09T00:13:45;8.65;;;6.15;;
64085;SDS011;50333;47.436;21.390;2023-01-09T00:16:13;11.35;;;5.22;;
64085;SDS011;50333;47.436;21.390;2023-01-09T00:18:41;9.95;;;5.65;;
64085;SDS011;50333;47.436;21.390;2023-01-09T00:21:10;11.80;;;5.60;;
64085;SDS011;50333;47.436;21.390;2023-01-09T00:23:41;7.53;;;5.37;;
64085;SDS011;50333;47.436;21.390;2023-01-09T00:26:16;6.95;;;4.78;;
64085;SDS011;50333;47.436;21.390;2023-01-09T00:28:46;8.55;;;5.15;;
64085;SDS011;50333;47.436;21.390;2023-01-09T00:31:16;7.70;;;4.85;;
64085;SDS011;50333;47.436;21.390;2023-01-09T00:33:53;7.00;;;4.87;;
64085;SDS011;50333;47.436;21.390;2023-01-09T00:36:26;7.72;;;4.90;;
64085;SDS011;50333;47.436;21.390;2023-01-09T00:38:54;8.70;;;5.62;;
64085;SDS011;50333;47.436;21.390;2023-01-09T00:41:26;10.52;;;5.32;;
64085;SDS011;50333;47.436;21.390;2023-01-09T00:44:20;5.40;;;4.30;;
64085;SDS011;50333;47.436;21.390;2023-01-09T00:46:50;7.00;;;5.03;;
64085;SDS011;50333;47.436;21.390;2023-01-09T00:49:24;6.12;;;4.85;;
64085;SDS011;50333;47.436;21.390;2023-01-09T00:51:54;8.52;;;5.45;;
64085;SDS011;50333;47.436;21.390;2023-01-09T00:54:22;7.55;;;4.85;;
64085;SDS011;50333;47.436;21.390;2023-01-09T00:56:50;8.43;;;4.93;;
64085;SDS011;50333;47.436;21.390;2023-01-09T00:59:18;6.07;;;4.70;;
64085;SDS011;50333;47.436;21.390;2023-01-09T01:01:45;6.55;;;4.72;;
64085;SDS011;50333;47.436;21.390;2023-01-09T01:04:13;6.55;;;4.90;;
64085;SDS011;50333;47.436;21.390;2023-01-09T01:07:00;6.00;;;4.60;;
64085;SDS011;50333;47.436;21.390;2023-01-09T01:09:47;6.22;;;5.03;;
64085;SDS011;50333;47.436;21.390;2023-01-09T01:12:15;7.62;;;4.90;;
64085;SDS011;50333;47.436;21.390;2023-01-09T01:14:42;7.15;;;4.70;;
64085;SDS011;50333;47.436;21.390;2023-01-09T01:17:10;8.52;;;4.87;;
64085;SDS011;50333;47.436;21.390;2023-01-09T01:19:38;7.30;;;5.03;;
64085;SDS011;50333;47.436;21.390;2023-01-09T01:22:06;6.22;;;5.10;;
64085;SDS011;50333;47.436;21.390;2023-01-09T01:24:34;6.35;;;4.97;;
64085;SDS011;50333;47.436;21.390;2023-01-09T01:27:01;5.40;;;4.30;;
64085;SDS011;50333;47.436;21.390;2023-01-09T01:29:29;7.20;;;4.95;;
64085;SDS011;50333;47.436;21.390;2023-01-09T01:31:57;9.00;;;4.65;;
64085;SDS011;50333;47.436;21.390;2023-01-09T01:34:24;7.30;;;4.82;;
64085;SDS011;50333;47.436;21.390;2023-01-09T01:36:54;6.15;;;4.90;;
64085;SDS011;50333;47.436;21.390;2023-01-09T01:39:22;7.32;;;4.45;;
64085;SDS011;50333;47.436;21.390;2023-01-09T01:41:49;6.82;;;4.90;;
64085;SDS011;50333;47.436;21.390;2023-01-09T01:47:24;6.43;;;4.43;;
64085;SDS011;50333;47.436;21.390;2023-01-09T01:50:01;9.52;;;5.45;;
64085;SDS011;50333;47.436;21.390;2023-01-09T01:52:31;6.20;;;4.62;;
64085;SDS011;50333;47.436;21.390;2023-01-09T01:55:01;6.90;;;4.62;;
64085;SDS011;50333;47.436;21.390;2023-01-09T02:00:00;5.87;;;4.43;;
64085;SDS011;50333;47.436;21.390;2023-01-09T02:02:30;5.82;;;4.53;;
64085;SDS011;50333;47.436;21.390;2023-01-09T02:05:03;6.47;;;4.80;;
64085;SDS011;50333;47.436;21.390;2023-01-09T02:07:31;7.32;;;4.43;;
64085;SDS011;50333;47.436;21.390;2023-01-09T02:09:59;6.15;;;4.75;;
64085;SDS011;50333;47.436;21.390;2023-01-09T02:12:27;6.85;;;4.75;;
64085;SDS011;50333;47.436;21.390;2023-01-09T02:15:07;5.37;;;4.25;;
64085;SDS011;50333;47.436;21.390;2023-01-09T02:34:23;5.18;;;4.40;;
64085;SDS011;50333;47.436;21.390;2023-01-09T02:37:05;6.18;;;4.43;;
64085;SDS011;50333;47.436;21.390;2023-01-09T02:42:28;6.68;;;4.47;;
64085;SDS011;50333;47.436;21.390;2023-01-09T02:44:57;6.90;;;4.37;;
64085;SDS011;50333;47.436;21.390;2023-01-09T02:49:52;6.43;;;4.40;;
64085;SDS011;50333;47.436;21.390;2023-01-09T03:06:29;11.55;;;4.25;;
64085;SDS011;50333;47.436;21.390;2023-01-09T03:09:07;7.10;;;4.50;;
64085;SDS011;50333;47.436;21.390;2023-01-09T03:11:41;6.62;;;4.03;;
64085;SDS011;50333;47.436;21.390;2023-01-09T03:14:15;7.15;;;4.43;;
64085;SDS011;50333;47.436;21.390;2023-01-09T03:16:46;5.20;;;4.43;;
64085;SDS011;50333;47.436;21.390;2023-01-09T03:19:19;7.37;;;4.53;;
64085;SDS011;50333;47.436;21.390;2023-01-09T03:21:50;5.68;;;4.22;;
64085;SDS011;50333;47.436;21.390;2023-01-09T03:24:19;7.00;;;4.30;;
64085;SDS011;50333;47.436;21.390;2023-01-09T03:26:47;5.78;;;4.60;;
64085;SDS011;50333;47.436;21.390;2023-01-09T03:29:15;5.10;;;4.18;;
64085;SDS011;50333;47.436;21.390;2023-01-09T03:31:42;6.65;;;4.82;;
64085;SDS011;50333;47.436;21.390;2023-01-09T03:34:10;5.30;;;4.15;;
64085;SDS011;50333;47.436;21.390;2023-01-09T03:36:38;5.47;;;4.12;;
64085;SDS011;50333;47.436;21.390;2023-01-09T03:39:06;7.43;;;4.22;;
64085;SDS011;50333;47.436;21.390;2023-01-09T03:41:34;6.85;;;4.40;;
64085;SDS011;50333;47.436;21.390;2023-01-09T03:44:01;6.70;;;4.18;;
64085;SDS011;50333;47.436;21.390;2023-01-09T03:46:29;7.97;;;4.90;;
64085;SDS011;50333;47.436;21.390;2023-01-09T03:48:57;7.62;;;4.43;;
64085;SDS011;50333;47.436;21.390;2023-01-09T03:51:25;5.25;;;4.00;;
64085;SDS011;50333;47.436;21.390;2023-01-09T03:53:53;9.40;;;4.53;;
64085;SDS011;50333;47.436;21.390;2023-01-09T03:56:20;6.37;;;4.07;;
64085;SDS011;50333;47.436;21.390;2023-01-09T03:58:48;5.00;;;3.85;;
64085;SDS011;50333;47.436;21.390;2023-01-09T04:01:16;7.65;;;4.50;;
64085;SDS011;50333;47.436;21.390;2023-01-09T04:03:44;5.53;;;4.07;;
64085;SDS011;50333;47.436;21.390;2023-01-09T04:06:12;6.35;;;4.10;;
64085;SDS011;50333;47.436;21.390;2023-01-09T04:08:39;6.53;;;4.37;;
64085;SDS011;50333;47.436;21.390;2023-01-09T04:11:08;5.12;;;4.45;;
64085;SDS011;50333;47.436;21.390;2023-01-09T04:13:35;6.45;;;4.72;;
64085;SDS011;50333;47.436;21.390;2023-01-09T04:16:03;6.55;;;4.25;;
64085;SDS011;50333;47.436;21.390;2023-01-09T04:18:31;6.22;;;4.45;;
64085;SDS011;50333;47.436;21.390;2023-01-09T04:20:59;5.53;;;4.15;;
64085;SDS011;50333;47.436;21.390;2023-01-09T04:23:27;5.93;;;4.20;;
64085;SDS011;50333;47.436;21.390;2023-01-09T04:25:55;4.72;;;4.00;;
64085;SDS011;50333;47.436;21.390;2023-01-09T04:28:22;4.75;;;3.90;;
64085;SDS011;50333;47.436;21.390;2023-01-09T04:30:50;6.00;;;4.70;;
64085;SDS011;50333;47.436;21.390;2023-01-09T04:33:18;6.00;;;4.78;;
64085;SDS011;50333;47.436;21.390;2023-01-09T04:35:45;5.87;;;4.57;;
64085;SDS011;50333;47.436;21.390;2023-01-09T04:38:13;4.47;;;3.70;;
64085;SDS011;50333;47.436;21.390;2023-01-09T04:40:41;5.20;;;4.25;;
64085;SDS011;50333;47.436;21.390;2023-01-09T04:43:08;6.35;;;4.18;;
64085;SDS011;50333;47.436;21.390;2023-01-09T04:45:36;5.32;;;3.92;;
64085;SDS011;50333;47.436;21.390;2023-01-09T04:48:04;6.50;;;4.40;;
64085;SDS011;50333;47.436;21.390;2023-01-09T04:50:32;7.12;;;4.72;;
64085;SDS011;50333;47.436;21.390;2023-01-09T04:53:00;10.23;;;3.90;;
64085;SDS011;50333;47.436;21.390;2023-01-09T04:55:28;5.80;;;3.85;;
64085;SDS011;50333;47.436;21.390;2023-01-09T04:57:55;5.35;;;4.30;;
64085;SDS011;50333;47.436;21.390;2023-01-09T05:00:23;8.80;;;4.20;;
64085;SDS011;50333;47.436;21.390;2023-01-09T05:02:51;5.20;;;4.18;;
64085;SDS011;50333;47.436;21.390;2023-01-09T05:05:19;5.00;;;3.87;;
64085;SDS011;50333;47.436;21.390;2023-01-09T05:07:46;4.93;;;4.10;;
64085;SDS011;50333;47.436;21.390;2023-01-09T05:10:14;7.15;;;3.97;;
64085;SDS011;50333;47.436;21.390;2023-01-09T05:12:42;5.93;;;4.80;;
64085;SDS011;50333;47.436;21.390;2023-01-09T05:15:09;5.12;;;3.92;;
64085;SDS011;50333;47.436;21.390;2023-01-09T05:17:38;5.12;;;3.92;;
64085;SDS011;50333;47.436;21.390;2023-01-09T05:20:06;6.18;;;4.20;;
64085;SDS011;50333;47.436;21.390;2023-01-09T05:22:34;6.12;;;3.90;;
64085;SDS011;50333;47.436;21.390;2023-01-09T05:25:02;5.87;;;4.00;;
64085;SDS011;50333;47.436;21.390;2023-01-09T05:27:29;8.05;;;4.30;;
64085;SDS011;50333;47.436;21.390;2023-01-09T05:29:57;5.43;;;3.58;;
64085;SDS011;50333;47.436;21.390;2023-01-09T05:32:25;6.22;;;4.18;;
64085;SDS011;50333;47.436;21.390;2023-01-09T05:34:52;5.45;;;3.90;;
64085;SDS011;50333;47.436;21.390;2023-01-09T05:37:20;5.35;;;3.80;;
64085;SDS011;50333;47.436;21.390;2023-01-09T05:39:48;6.05;;;3.95;;
64085;SDS011;50333;47.436;21.390;2023-01-09T05:42:16;4.80;;;3.95;;
64085;SDS011;50333;47.436;21.390;2023-01-09T05:44:43;8.40;;;4.10;;
64085;SDS011;50333;47.436;21.390;2023-01-09T05:47:11;5.22;;;3.95;;
64085;SDS011;50333;47.436;21.390;2023-01-09T05:49:39;5.72;;;4.47;;
64085;SDS011;50333;47.436;21.390;2023-01-09T05:52:07;4.68;;;3.85;;
64085;SDS011;50333;47.436;21.390;2023-01-09T05:54:35;4.60;;;3.45;;
64085;SDS011;50333;47.436;21.390;2023-01-09T05:57:02;5.22;;;4.00;;
64085;SDS011;50333;47.436;21.390;2023-01-09T05:59:30;5.65;;;3.95;;
64085;SDS011;50333;47.436;21.390;2023-01-09T06:01:58;3.75;;;3.30;;
64085;SDS011;50333;47.436;21.390;2023-01-09T06:04:26;4.75;;;3.70;;
64085;SDS011;50333;47.436;21.390;2023-01-09T06:06:56;4.93;;;3.83;;
64085;SDS011;50333;47.436;21.390;2023-01-09T06:09:23;7.12;;;4.10;;
64085;SDS011;50333;47.436;21.390;2023-01-09T06:11:51;5.07;;;3.90;;
64085;SDS011;50333;47.436;21.390;2023-01-09T06:14:20;5.65;;;4.60;;
64085;SDS011;50333;47.436;21.390;2023-01-09T06:16:48;5.90;;;4.10;;
64085;SDS011;50333;47.436;21.390;2023-01-09T06:19:16;13.98;;;7.97;;
64085;SDS011;50333;47.436;21.390;2023-01-09T06:21:44;19.12;;;11.38;;
64085;SDS011;50333;47.436;21.390;2023-01-09T06:24:11;9.13;;;6.68;;
64085;SDS011;50333;47.436;21.390;2023-01-09T06:26:39;6.65;;;4.25;;
64085;SDS011;50333;47.436;21.390;2023-01-09T06:29:07;7.87;;;5.32;;
64085;SDS011;50333;47.436;21.390;2023-01-09T06:31:35;9.68;;;6.62;;
64085;SDS011;50333;47.436;21.390;2023-01-09T06:34:03;17.83;;;14.27;;
64085;SDS011;50333;47.436;21.390;2023-01-09T06:36:30;19.65;;;14.30;;
64085;SDS011;50333;47.436;21.390;2023-01-09T06:38:58;45.80;;;32.30;;
64085;SDS011;50333;47.436;21.390;2023-01-09T06:41:26;39.13;;;24.02;;
64085;SDS011;50333;47.436;21.390;2023-01-09T06:43:53;22.92;;;13.40;;
64085;SDS011;50333;47.436;21.390;2023-01-09T06:46:21;11.38;;;6.82;;
64085;SDS011;50333;47.436;21.390;2023-01-09T06:48:49;12.15;;;7.25;;
64085;SDS011;50333;47.436;21.390;2023-01-09T06:51:17;14.48;;;7.93;;
64085;SDS011;50333;47.436;21.390;2023-01-09T06:53:45;10.18;;;6.35;;
64085;SDS011;50333;47.436;21.390;2023-01-09T06:56:13;7.07;;;4.70;;
64085;SDS011;50333;47.436;21.390;2023-01-09T06:58:40;6.72;;;5.05;;
64085;SDS011;50333;47.436;21.390;2023-01-09T07:01:08;6.87;;;4.82;;
64085;SDS011;50333;47.436;21.390;2023-01-09T07:03:36;5.87;;;4.32;;
64085;SDS011;50333;47.436;21.390;2023-01-09T07:06:04;5.60;;;4.25;;
64085;SDS011;50333;47.436;21.390;2023-01-09T07:08:32;5.20;;;4.10;;
64085;SDS011;50333;47.436;21.390;2023-01-09T07:11:00;10.95;;;4.18;;
64085;SDS011;50333;47.436;21.390;2023-01-09T07:13:28;4.68;;;3.67;;
64085;SDS011;50333;47.436;21.390;2023-01-09T07:15:56;5.37;;;4.07;;
64085;SDS011;50333;47.436;21.390;2023-01-09T07:18:23;5.25;;;3.40;;
64085;SDS011;50333;47.436;21.390;2023-01-09T07:20:51;5.68;;;4.22;;
64085;SDS011;50333;47.436;21.390;2023-01-09T07:23:19;6.78;;;4.90;;
64085;SDS011;50333;47.436;21.390;2023-01-09T07:25:47;8.75;;;6.50;;
64085;SDS011;50333;47.436;21.390;2023-01-09T07:28:17;5.10;;;4.55;;
64085;SDS011;50333;47.436;21.390;2023-01-09T07:30:44;9.82;;;4.93;;
64085;SDS011;50333;47.436;21.390;2023-01-09T07:33:12;5.00;;;4.50;;
64085;SDS011;50333;47.436;21.390;2023-01-09T07:35:40;8.40;;;5.28;;
64085;SDS011;50333;47.436;21.390;2023-01-09T07:38:08;6.85;;;4.50;;
64085;SDS011;50333;47.436;21.390;2023-01-09T07:40:35;5.72;;;4.35;;
64085;SDS011;50333;47.436;21.390;2023-01-09T07:43:03;5.57;;;3.67;;
64085;SDS011;50333;47.436;21.390;2023-01-09T07:45:31;5.68;;;4.20;;
64085;SDS011;50333;47.436;21.390;2023-01-09T07:47:59;6.93;;;4.60;;
64085;SDS011;50333;47.436;21.390;2023-01-09T07:50:26;5.75;;;4.12;;
64085;SDS011;50333;47.436;21.390;2023-01-09T07:52:54;25.12;;;17.77;;
64085;SDS011;50333;47.436;21.390;2023-01-09T07:55:22;74.35;;;48.08;;
64085;SDS011;50333;47.436;21.390;2023-01-09T07:57:50;9.10;;;6.28;;
64085;SDS011;50333;47.436;21.390;2023-01-09T08:00:18;5.20;;;3.78;;
64085;SDS011;50333;47.436;21.390;2023-01-09T08:02:51;5.05;;;3.92;;
64085;SDS011;50333;47.436;21.390;2023-01-09T08:05:19;4.53;;;3.65;;
64085;SDS011;50333;47.436;21.390;2023-01-09T08:07:48;6.22;;;3.67;;
64085;SDS011;50333;47.436;21.390;2023-01-09T08:10:17;6.57;;;4.03;;
64085;SDS011;50333;47.436;21.390;2023-01-09T08:12:46;6.05;;;4.45;;
64085;SDS011;50333;47.436;21.390;2023-01-09T08:15:15;5.95;;;4.90;;
64085;SDS011;50333;47.436;21.390;2023-01-09T08:17:43;7.60;;;5.53;;
64085;SDS011;50333;47.436;21.390;2023-01-09T08:20:13;6.40;;;4.93;;
64085;SDS011;50333;47.436;21.390;2023-01-09T08:22:44;5.62;;;4.85;;
64085;SDS011;50333;47.436;21.390;2023-01-09T08:25:16;5.12;;;4.15;;
64085;SDS011;50333;47.436;21.390;2023-01-09T08:27:45;5.07;;;3.92;;
64085;SDS011;50333;47.436;21.390;2023-01-09T08:30:13;7.60;;;4.30;;
64085;SDS011;50333;47.436;21.390;2023-01-09T08:32:41;4.65;;;3.83;;
64085;SDS011;50333;47.436;21.390;2023-01-09T08:35:10;4.82;;;3.80;;
64085;SDS011;50333;47.436;21.390;2023-01-09T08:37:37;8.98;;;5.65;;
64085;SDS011;50333;47.436;21.390;2023-01-09T08:40:05;16.08;;;12.35;;
64085;SDS011;50333;47.436;21.390;2023-01-09T08:42:33;8.90;;;5.43;;
64085;SDS011;50333;47.436;21.390;2023-01-09T08:45:20;4.57;;;3.80;;
64085;SDS011;50333;47.436;21.390;2023-01-09T08:48:07;8.43;;;4.22;;
64085;SDS011;50333;47.436;21.390;2023-01-09T08:50:35;8.98;;;7.12;;
64085;SDS011;50333;47.436;21.390;2023-01-09T08:53:02;7.62;;;5.70;;
64085;SDS011;50333;47.436;21.390;2023-01-09T08:55:30;11.65;;;8.07;;
64085;SDS011;50333;47.436;21.390;2023-01-09T08:57:58;12.40;;;6.43;;
64085;SDS011;50333;47.436;21.390;2023-01-09T09:00:26;7.05;;;4.72;;
64085;SDS011;50333;47.436;21.390;2023-01-09T09:02:58;9.95;;;4.32;;
64085;SDS011;50333;47.436;21.390;2023-01-09T09:05:28;13.73;;;7.78;;
64085;SDS011;50333;47.436;21.390;2023-01-09T09:07:57;12.57;;;5.80;;
64085;SDS011;50333;47.436;21.390;2023-01-09T09:10:26;13.43;;;9.15;;
64085;SDS011;50333;47.436;21.390;2023-01-09T09:12:56;9.38;;;7.07;;
64085;SDS011;50333;47.436;21.390;2023-01-09T09:15:25;10.68;;;6.60;;
64085;SDS011;50333;47.436;21.390;2023-01-09T09:17:55;13.55;;;8.90;;
64085;SDS011;50333;47.436;21.390;2023-01-09T09:20:25;11.85;;;7.55;;
64085;SDS011;50333;47.436;21.390;2023-01-09T09:22:55;5.75;;;4.82;;
64085;SDS011;50333;47.436;21.390;2023-01-09T09:25:23;5.60;;;3.53;;
64085;SDS011;50333;47.436;21.390;2023-01-09T09:27:51;4.37;;;3.67;;
64085;SDS011;50333;47.436;21.390;2023-01-09T09:30:19;5.15;;;3.60;;
64085;SDS011;50333;47.436;21.390;2023-01-09T09:32:46;4.62;;;3.80;;
64085;SDS011;50333;47.436;21.390;2023-01-09T09:35:15;7.93;;;3.80;;
64085;SDS011;50333;47.436;21.390;2023-01-09T09:37:56;4.93;;;3.55;;
64085;SDS011;50333;47.436;21.390;2023-01-09T09:44:40;5.07;;;3.67;;
64085;SDS011;50333;47.436;21.390;2023-01-09T09:53:28;5.32;;;4.05;;
64085;SDS011;50333;47.436;21.390;2023-01-09T09:56:03;6.50;;;4.07;;
64085;SDS011;50333;47.436;21.390;2023-01-09T09:58:35;4.80;;;3.85;;
64085;SDS011;50333;47.436;21.390;2023-01-09T10:01:06;5.10;;;4.22;;
64085;SDS011;50333;47.436;21.390;2023-01-09T10:03:40;4.87;;;3.90;;
64085;SDS011;50333;47.436;21.390;2023-01-09T10:14:40;6.32;;;4.28;;
64085;SDS011;50333;47.436;21.390;2023-01-09T10:30:32;4.40;;;3.62;;
64085;SDS011;50333;47.436;21.390;2023-01-09T10:33:22;5.60;;;3.95;;
64085;SDS011;50333;47.436;21.390;2023-01-09T10:38:52;5.60;;;4.15;;
64085;SDS011;50333;47.436;21.390;2023-01-09T10:41:29;7.80;;;3.90;;
64085;SDS011;50333;47.436;21.390;2023-01-09T10:44:14;7.75;;;4.68;;
64085;SDS011;50333;47.436;21.390;2023-01-09T10:46:48;12.27;;;3.95;;
64085;SDS011;50333;47.436;21.390;2023-01-09T10:49:21;5.87;;;3.90;;
64085;SDS011;50333;47.436;21.390;2023-01-09T10:52:03;7.45;;;4.90;;
64085;SDS011;50333;47.436;21.390;2023-01-09T10:55:26;7.07;;;3.83;;
64085;SDS011;50333;47.436;21.390;2023-01-09T10:57:53;13.65;;;4.18;;
64085;SDS011;50333;47.436;21.390;2023-01-09T11:00:24;14.75;;;4.82;;
64085;SDS011;50333;47.436;21.390;2023-01-09T11:02:53;13.68;;;4.22;;
64085;SDS011;50333;47.436;21.390;2023-01-09T11:05:22;6.68;;;4.50;;
64085;SDS011;50333;47.436;21.390;2023-01-09T11:08:02;4.85;;;4.18;;
64085;SDS011;50333;47.436;21.390;2023-01-09T11:13:16;6.05;;;4.47;;
64085;SDS011;50333;47.436;21.390;2023-01-09T11:16:03;6.10;;;4.70;;
64085;SDS011;50333;47.436;21.390;2023-01-09T11:18:32;8.60;;;5.80;;
64085;SDS011;50333;47.436;21.390;2023-01-09T11:21:13;5.90;;;4.25;;
64085;SDS011;50333;47.436;21.390;2023-01-09T11:24:17;6.15;;;4.62;;
64085;SDS011;50333;47.436;21.390;2023-01-09T11:26:51;6.40;;;5.10;;
64085;SDS011;50333;47.436;21.390;2023-01-09T11:29:21;8.85;;;6.43;;
64085;SDS011;50333;47.436;21.390;2023-01-09T11:31:55;9.25;;;6.68;;
64085;SDS011;50333;47.436;21.390;2023-01-09T11:34:32;9.50;;;6.35;;
64085;SDS011;50333;47.436;21.390;2023-01-09T11:37:05;9.13;;;6.25;;
64085;SDS011;50333;47.436;21.390;2023-01-09T11:39:36;25.35;;;8.63;;
64085;SDS011;50333;47.436;21.390;2023-01-09T11:42:20;11.98;;;5.85;;
64085;SDS011;50333;47.436;21.390;2023-01-09T11:45:15;10.98;;;5.78;;
64085;SDS011;50333;47.436;21.390;2023-01-09T11:47:47;11.38;;;6.35;;
64085;SDS011;50333;47.436;21.390;2023-01-09T11:50:17;17.55;;;10.07;;
64085;SDS011;50333;47.436;21.390;2023-01-09T11:53:06;9.18;;;5.85;;
64085;SDS011;50333;47.436;21.390;2023-01-09T11:55:40;13.57;;;5.37;;
64085;SDS011;50333;47.436;21.390;2023-01-09T11:58:13;16.98;;;8.50;;
64085;SDS011;50333;47.436;21.390;2023-01-09T12:00:46;14.20;;;7.35;;
64085;SDS011;50333;47.436;21.390;2023-01-09T13:09:55;9.30;;;7.43;;
64085;SDS011;50333;47.436;21.390;2023-01-09T13:12:31;11.25;;;6.70;;
64085;SDS011;50333;47.436;21.390;2023-01-09T13:15:04;9.25;;;6.60;;
64085;SDS011;50333;47.436;21.390;2023-01-09T13:17:42;9.23;;;6.50;;
64085;SDS011;50333;47.436;21.390;2023-01-09T13:20:28;8.27;;;6.50;;
64085;SDS011;50333;47.436;21.390;2023-01-09T13:23:03;10.15;;;6.95;;
64085;SDS011;50333;47.436;21.390;2023-01-09T13:25:51;8.48;;;6.62;;
64085;SDS011;50333;47.436;21.390;2023-01-09T13:28:26;9.57;;;6.50;;
64085;SDS011;50333;47.436;21.390;2023-01-09T13:33:55;11.57;;;7.45;;
64085;SDS011;50333;47.436;21.390;2023-01-09T13:36:33;9.50;;;7.15;;
64085;SDS011;50333;47.436;21.390;2023-01-09T13:39:04;9.65;;;7.10;;
64085;SDS011;50333;47.436;21.390;2023-01-09T13:41:33;8.40;;;7.03;;
64085;SDS011;50333;47.436;21.390;2023-01-09T13:44:32;8.95;;;6.70;;
64085;SDS011;50333;47.436;21.390;2023-01-09T13:47:00;9.25;;;7.32;;
64085;SDS011;50333;47.436;21.390;2023-01-09T14:03:02;9.65;;;7.32;;
64085;SDS011;50333;47.436;21.390;2023-01-09T14:18:29;11.27;;;8.73;;
64085;SDS011;50333;47.436;21.390;2023-01-09T14:21:02;9.82;;;7.70;;
64085;SDS011;50333;47.436;21.390;2023-01-09T14:26:20;14.95;;;9.80;;
64085;SDS011;50333;47.436;21.390;2023-01-09T14:28:49;13.75;;;9.48;;
64085;SDS011;50333;47.436;21.390;2023-01-09T14:31:35;18.20;;;9.95;;
64085;SDS011;50333;47.436;21.390;2023-01-09T14:36:58;12.55;;;8.75;;
64085;SDS011;50333;47.436;21.390;2023-01-09T14:39:29;12.77;;;8.55;;
64085;SDS011;50333;47.436;21.390;2023-01-09T14:41:59;13.18;;;9.77;;
64085;SDS011;50333;47.436;21.390;2023-01-09T14:53:06;11.18;;;8.57;;
64085;SDS011;50333;47.436;21.390;2023-01-09T14:58:19;10.68;;;8.80;;
64085;SDS011;50333;47.436;21.390;2023-01-09T15:00:54;13.35;;;8.63;;
64085;SDS011;50333;47.436;21.390;2023-01-09T15:03:42;11.70;;;8.05;;
64085;SDS011;50333;47.436;21.390;2023-01-09T15:06:19;9.68;;;7.72;;
64085;SDS011;50333;47.436;21.390;2023-01-09T15:08:53;11.02;;;9.25;;
64085;SDS011;50333;47.436;21.390;2023-01-09T15:11:24;14.65;;;11.20;;
64085;SDS011;50333;47.436;21.390;2023-01-09T15:13:52;15.07;;;10.55;;
64085;SDS011;50333;47.436;21.390;2023-01-09T15:16:24;16.20;;;10.77;;
64085;SDS011;50333;47.436;21.390;2023-01-09T15:18:57;12.82;;;10.07;;
64085;SDS011;50333;47.436;21.390;2023-01-09T15:21:28;15.13;;;10.00;;
64085;SDS011;50333;47.436;21.390;2023-01-09T15:27:02;13.52;;;11.25;;
64085;SDS011;50333;47.436;21.390;2023-01-09T15:29:36;17.67;;;11.57;;
64085;SDS011;50333;47.436;21.390;2023-01-09T15:34:50;19.27;;;14.27;;
64085;SDS011;50333;47.436;21.390;2023-01-09T15:39:50;18.67;;;15.45;;
64085;SDS011;50333;47.436;21.390;2023-01-09T15:42:22;22.25;;;16.08;;
64085;SDS011;50333;47.436;21.390;2023-01-09T15:45:57;13.82;;;10.25;;
64085;SDS011;50333;47.436;21.390;2023-01-09T15:48:22;13.38;;;10.63;;
64085;SDS011;50333;47.436;21.390;2023-01-09T15:53:30;17.23;;;12.10;;
64085;SDS011;50333;47.436;21.390;2023-01-09T15:58:39;18.50;;;11.27;;
64085;SDS011;50333;47.436;21.390;2023-01-09T16:01:29;15.00;;;9.20;;
64085;SDS011;50333;47.436;21.390;2023-01-09T16:04:15;19.17;;;13.07;;
64085;SDS011;50333;47.436;21.390;2023-01-09T16:06:47;12.95;;;9.93;;
64085;SDS011;50333;47.436;21.390;2023-01-09T16:09:18;14.77;;;10.80;;
64085;SDS011;50333;47.436;21.390;2023-01-09T16:11:51;17.10;;;11.43;;
64085;SDS011;50333;47.436;21.390;2023-01-09T16:17:14;13.13;;;10.50;;
64085;SDS011;50333;47.436;21.390;2023-01-09T16:24:55;13.30;;;10.65;;
64085;SDS011;50333;47.436;21.390;2023-01-09T16:27:26;11.32;;;8.75;;
64085;SDS011;50333;47.436;21.390;2023-01-09T16:29:57;14.93;;;10.35;;
64085;SDS011;50333;47.436;21.390;2023-01-09T16:35:01;47.22;;;29.75;;
64085;SDS011;50333;47.436;21.390;2023-01-09T16:37:33;32.97;;;22.23;;
64085;SDS011;50333;47.436;21.390;2023-01-09T16:40:21;37.05;;;29.25;;
64085;SDS011;50333;47.436;21.390;2023-01-09T16:42:51;24.08;;;20.77;;
64085;SDS011;50333;47.436;21.390;2023-01-09T16:45:37;18.87;;;14.82;;
64085;SDS011;50333;47.436;21.390;2023-01-09T16:48:13;19.48;;;14.60;;
64085;SDS011;50333;47.436;21.390;2023-01-09T16:50:49;19.15;;;15.10;;
64085;SDS011;50333;47.436;21.390;2023-01-09T16:53:21;26.42;;;19.92;;
64085;SDS011;50333;47.436;21.390;2023-01-09T16:55:52;32.50;;;24.08;;
64085;SDS011;50333;47.436;21.390;2023-01-09T16:58:24;24.30;;;20.37;;
64085;SDS011;50333;47.436;21.390;2023-01-09T17:00:55;21.50;;;17.70;;
64085;SDS011;50333;47.436;21.390;2023-01-09T17:03:24;19.70;;;15.52;;
64085;SDS011;50333;47.436;21.390;2023-01-09T17:05:53;17.33;;;14.45;;
64085;SDS011;50333;47.436;21.390;2023-01-09T17:08:23;17.37;;;13.57;;
64085;SDS011;50333;47.436;21.390;2023-01-09T17:10:55;19.45;;;13.57;;
64085;SDS011;50333;47.436;21.390;2023-01-09T17:13:24;18.02;;;14.20;;
64085;SDS011;50333;47.436;21.390;2023-01-09T17:15:52;49.25;;;26.20;;
64085;SDS011;50333;47.436;21.390;2023-01-09T17:18:22;108.32;;;48.60;;
64085;SDS011;50333;47.436;21.390;2023-01-09T17:20:53;94.65;;;47.62;;
64085;SDS011;50333;47.436;21.390;2023-01-09T17:23:22;122.77;;;53.83;;
64085;SDS011;50333;47.436;21.390;2023-01-09T17:25:53;89.45;;;43.22;;
64085;SDS011;50333;47.436;21.390;2023-01-09T17:28:43;132.65;;;51.92;;
64085;SDS011;50333;47.436;21.390;2023-01-09T17:31:14;105.85;;;44.28;;
64085;SDS011;50333;47.436;21.390;2023-01-09T17:33:42;23.58;;;15.35;;
64085;SDS011;50333;47.436;21.390;2023-01-09T17:36:44;19.52;;;13.40;;
64085;SDS011;50333;47.436;21.390;2023-01-09T17:39:04;15.32;;;11.63;;
64085;SDS011;50333;47.436;21.390;2023-01-09T17:41:31;46.67;;;25.35;;
64085;SDS011;50333;47.436;21.390;2023-01-09T17:43:59;45.38;;;23.35;;
64085;SDS011;50333;47.436;21.390;2023-01-09T17:46:28;48.40;;;26.85;;
64085;SDS011;50333;47.436;21.390;2023-01-09T17:48:58;36.60;;;20.62;;
64085;SDS011;50333;47.436;21.390;2023-01-09T17:51:27;40.38;;;21.62;;
64085;SDS011;50333;47.436;21.390;2023-01-09T17:53:56;40.88;;;20.62;;
64085;SDS011;50333;47.436;21.390;2023-01-09T17:56:24;36.22;;;21.42;;
64085;SDS011;50333;47.436;21.390;2023-01-09T17:58:55;18.52;;;13.48;;
64085;SDS011;50333;47.436;21.390;2023-01-09T18:01:23;23.10;;;14.85;;
64085;SDS011;50333;47.436;21.390;2023-01-09T18:03:51;24.77;;;15.05;;
64085;SDS011;50333;47.436;21.390;2023-01-09T18:06:20;17.92;;;12.65;;
64085;SDS011;50333;47.436;21.390;2023-01-09T18:08:51;15.35;;;9.50;;
64085;SDS011;50333;47.436;21.390;2023-01-09T18:11:19;12.75;;;10.38;;
64085;SDS011;50333;47.436;21.390;2023-01-09T18:13:48;12.60;;;9.45;;
64085;SDS011;50333;47.436;21.390;2023-01-09T18:16:19;14.32;;;9.65;;
64085;SDS011;50333;47.436;21.390;2023-01-09T18:18:52;12.75;;;10.27;;
64085;SDS011;50333;47.436;21.390;2023-01-09T18:21:23;15.55;;;11.25;;
64085;SDS011;50333;47.436;21.390;2023-01-09T18:23:51;17.55;;;11.00;;
64085;SDS011;50333;47.436;21.390;2023-01-09T18:26:20;17.05;;;12.43;;